Time;durP1;ratioP1;P1;durP2;ratioP2;P2;SDS_P1;SDS_P2;PMS_P1;PMS_P2;Temp;Humidity;BMP_temperature;BMP_pressure;BME280_temperature;BME280_humidity;BME280_pressure;Samples;Min_cycle;Max_cycle;Signal;HPM_P1;HPM_P2
2022/04/16 00:07:42;;;;;;;1.07;0.80;;;;;;;;;;20915507;28;20713;-70
2022/04/16 00:17:43;;;;;;;0.83;0.70;;;;;;;;;;20914703;28;20221;-69
2022/04/16 00:27:47;;;;;;;1.13;0.63;;;;;;;;;;20912920;28;20604;-70
2022/04/16 00:37:48;;;;;;;1.43;0.80;;;;;;;;;;20914976;28;20222;-69
2022/04/16 00:47:54;;;;;;;0.80;0.70;;;;;;;;;;20978129;22;20288;-84
2022/04/16 00:57:56;;;;;;;0.73;0.60;;;;;;;;;;20914985;28;20647;-84
2022/04/16 01:07:59;;;;;;;1.20;0.87;;;14.40;99.90;;;;;;20897395;28;20683;-83
2022/04/16 01:18:02;;;;;;;0.87;0.70;;;;;;;;;;20879878;28;20229;-83
2022/04/16 01:28:05;;;;;;;0.80;0.70;;;14.00;99.90;;;;;;20912777;28;20209;-83
2022/04/16 01:38:08;;;;;;;0.97;0.77;;;;;;;;;;20895083;28;20303;-84
2022/04/16 01:48:13;;;;;;;1.53;0.80;;;;;;;;;;20895918;28;20222;-84
2022/04/16 01:58:15;;;;;;;2.33;0.97;;;;;;;;;;20881294;28;20230;-83
2022/04/16 02:08:17;;;;;;;1.67;0.93;;;;;;;;;;20896225;28;20271;-82
2022/04/16 02:18:19;;;;;;;1.43;0.90;;;;;;;;;;20875392;28;20229;-83
2022/04/16 02:28:21;;;;;;;1.67;0.90;;;;;;;;;;20891683;28;20590;-83
2022/04/16 02:38:23;;;;;;;1.50;1.07;;;;;;;;;;20858979;28;20260;-83
2022/04/16 02:48:25;;;;;;;1.73;1.00;;;;;;;;;;20894241;28;20225;-83
2022/04/16 02:58:27;;;;;;;1.47;1.00;;;;;;;;;;20924456;28;20221;-83
2022/04/16 03:08:29;;;;;;;2.10;0.90;;;;;;;;;;20890841;28;20244;-83
2022/04/16 03:18:31;;;;;;;1.93;1.10;;;;;;;;;;20906440;28;20628;-83
2022/04/16 03:28:33;;;;;;;1.50;0.90;;;;;;;;;;20890086;28;20263;-83
2022/04/16 03:38:35;;;;;;;1.40;1.10;;;;;;;;;;20959933;28;20206;-86
2022/04/16 03:48:37;;;;;;;1.67;1.20;;;;;;;;;;21002900;28;20217;-83
2022/04/16 04:09:02;;;;;;;1.40;0.90;;;;;;;;;;20906242;28;20221;-85
2022/04/16 04:19:03;;;;;;;1.70;1.10;;;;;;;;;;20890423;28;20229;-84
2022/04/16 04:29:05;;;;;;;2.50;0.97;;;;;;;;;;20886349;28;20268;-83
2022/04/16 04:39:08;;;;;;;1.70;1.03;;;;;;;;;;20884282;28;20217;-85
2022/04/16 04:49:12;;;;;;;1.90;1.20;;;;;;;;;;20917107;28;20267;-84
2022/04/16 04:59:14;;;;;;;1.97;1.13;;;;;;;;;;20900538;28;20734;-85
2022/04/16 05:09:16;;;;;;;1.40;1.10;;;;;;;;;;20914757;28;20252;-84
2022/04/16 05:19:17;;;;;;;2.00;1.10;;;;;;;;;;20897265;28;20630;-82
2022/04/16 05:29:19;;;;;;;1.93;1.13;;;;;;;;;;20887676;28;20634;-82
2022/04/16 05:39:21;;;;;;;1.83;1.20;;;;;;;;;;20881108;28;20226;-83
2022/04/16 05:49:23;;;;;;;2.63;1.17;;;;;;;;;;20824807;28;20256;-80
2022/04/16 05:59:24;;;;;;;1.93;1.20;;;;;;;;;;20878705;28;20210;-80
2022/04/16 06:09:26;;;;;;;2.83;1.70;;;;;;;;;;20876543;28;20214;-80
2022/04/16 06:19:28;;;;;;;3.07;1.47;;;13.00;99.90;;;;;;20909685;28;20210;-80
2022/04/16 06:29:29;;;;;;;1.77;1.10;;;;;;;;;;20892076;28;20206;-80
2022/04/16 06:39:32;;;;;;;2.37;1.37;;;;;;;;;;20911758;28;20795;-80
2022/04/16 06:49:34;;;;;;;2.03;1.10;;;;;;;;;;20874297;28;20229;-81
2022/04/16 06:59:37;;;;;;;1.80;1.27;;;;;;;;;;20864119;28;20903;-81
2022/04/16 07:09:38;;;;;;;1.40;0.80;;;;;;;;;;20890309;28;20327;-81
2022/04/16 07:19:40;;;;;;;1.17;0.60;;;;;;;;;;20905508;28;20217;-80
2022/04/16 07:29:42;;;;;;;1.77;0.50;;;;;;;;;;20873545;28;20222;-80
2022/04/16 07:39:43;;;;;;;0.87;0.60;;;;;;;;;;20917788;28;20222;-79
2022/04/16 07:49:45;;;;;;;2.67;0.60;;;;;;;;;;20920278;28;20248;-81
2022/04/16 07:59:47;;;;;;;0.47;0.40;;;;;;;;;;20964323;28;20312;-79
2022/04/16 08:09:48;;;;;;;0.70;0.50;;;;;;;;;;20929791;28;20226;-80
2022/04/16 08:19:50;;;;;;;0.30;0.30;;;;;;;;;;20901327;28;20218;-79
2022/04/16 08:29:52;;;;;;;0.87;0.53;;;;;;;;;;20900305;28;20214;-81
2022/04/16 08:39:54;;;;;;;0.33;0.33;;;;;;;;;;20874547;28;20287;-84
2022/04/16 08:49:56;;;;;;;0.43;0.40;;;;;;;;;;20881289;28;20280;-82
2022/04/16 08:59:57;;;;;;;0.43;0.30;;;;;;;;;;20884619;28;20214;-82
2022/04/16 09:10:09;;;;;;;0.83;0.43;;;;;;;;;;20914560;28;20698;-81
2022/04/16 09:20:14;;;;;;;1.53;0.40;;;16.60;99.90;;;;;;20877152;28;20213;-82
2022/04/16 09:30:23;;;;;;;0.60;0.50;;;;;;;;;;20878087;28;20229;-81
2022/04/16 09:40:28;;;;;;;0.80;0.50;;;;;;;;;;20860448;28;20279;-81
2022/04/16 09:50:30;;;;;;;0.57;0.40;;;;;;;;;;20838994;28;20222;-81
2022/04/16 10:00:33;;;;;;;1.93;0.60;;;;;;;;;;20891297;28;20214;-81
2022/04/16 10:10:46;;;;;;;0.60;0.40;;;;;;;;;;20850237;28;20723;-81
2022/04/16 10:20:54;;;;;;;0.40;0.40;;;;;;;;;;20867612;28;20232;-81
2022/04/16 10:30:56;;;;;;;0.80;0.40;;;;;;;;;;20899940;28;20213;-81
2022/04/16 10:41:01;;;;;;;0.97;0.60;;;;;;;;;;20887602;28;20234;-83
2022/04/16 10:51:03;;;;;;;2.37;0.57;;;;;;;;;;20905988;28;20221;-83
2022/04/16 11:01:26;;;;;;;1.20;0.60;;;17.30;99.90;;;;;;20889261;28;20210;-83
2022/04/16 11:11:28;;;;;;;0.40;0.30;;;;;;;;;;20888316;28;20648;-83
2022/04/16 11:21:29;;;;;;;2.73;0.60;;;;;;;;;;20905921;28;20232;-84
2022/04/16 11:42:02;;;;;;;1.20;0.50;;;;;;;;;;20879137;28;20229;-82
2022/04/16 11:52:05;;;;;;;0.97;0.57;;;;;;;;;;20899365;28;20782;-82
2022/04/16 12:02:09;;;;;;;0.83;0.47;;;20.70;99.90;;;;;;20885480;28;20630;-84
2022/04/16 12:12:19;;;;;;;0.50;0.40;;;20.30;99.90;;;;;;20916677;28;20279;-83
2022/04/16 12:22:21;;;;;;;0.77;0.60;;;;;;;;;;20811477;28;20232;-81
2022/04/16 12:32:29;;;;;;;0.50;0.40;;;;;;;;;;20898718;28;20576;-83
2022/04/16 12:42:33;;;;;;;0.60;0.40;;;;;;;;;;20895513;28;20263;-82
2022/04/16 12:52:36;;;;;;;0.60;0.40;;;;;;;;;;20897086;28;20223;-82
2022/04/16 13:02:44;;;;;;;0.90;0.40;;;;;;;;;;20884939;28;20223;-81
2022/04/16 13:12:46;;;;;;;0.60;0.40;;;;;;;;;;20910987;28;20223;-82
2022/04/16 13:22:47;;;;;;;1.40;0.60;;;;;;;;;;20894743;28;20579;-81
2022/04/16 13:32:49;;;;;;;0.50;0.40;;;;;;;;;;20910661;28;20237;-81
2022/04/16 13:42:58;;;;;;;0.80;0.60;;;;;;;;;;20909482;28;20231;-82
2022/04/16 13:53:00;;;;;;;1.73;0.67;;;;;;;;;;20956535;28;20243;-80
2022/04/16 14:03:02;;;;;;;0.93;0.60;;;;;;;;;;21014875;28;20773;-81
2022/04/16 14:13:04;;;;;;;0.60;0.40;;;;;;;;;;20966310;28;20232;-82
2022/04/16 14:23:07;;;;;;;2.57;1.47;;;;;;;;;;20887337;28;20661;-81
2022/04/16 14:33:10;;;;;;;0.80;0.40;;;;;;;;;;20881823;28;20254;-82
2022/04/16 14:43:13;;;;;;;1.03;0.40;;;;;;;;;;20887463;28;20220;-81
2022/04/16 14:53:16;;;;;;;0.57;0.40;;;;;;;;;;20860920;28;20228;-81
2022/04/16 15:03:18;;;;;;;0.63;0.40;;;;;;;;;;20872207;28;20236;-80
2022/04/16 15:13:20;;;;;;;0.90;0.37;;;;;;;;;;20903533;28;20226;-81
2022/04/16 15:23:23;;;;;;;0.50;0.33;;;;;;;;;;20828290;28;20232;-83
2022/04/16 15:33:25;;;;;;;0.47;0.30;;;;;;;;;;20850690;28;20229;-82
2022/04/16 15:43:27;;;;;;;1.60;0.40;;;;;;;;;;20852344;28;20330;-82
2022/04/16 15:53:29;;;;;;;0.43;0.30;;;;;;;;;;20864257;28;20237;-82
2022/04/16 16:03:31;;;;;;;0.77;0.37;;;;;;;;;;20899592;28;20219;-83
2022/04/16 16:13:32;;;;;;;0.40;0.30;;;;;;;;;;20874024;28;20572;-83
2022/04/16 16:23:39;;;;;;;0.80;0.50;;;;;;;;;;20829128;28;20228;-82
2022/04/16 16:33:40;;;;;;;0.73;0.40;;;;;;;;;;20864921;28;20285;-83
2022/04/16 16:43:43;;;;;;;0.57;0.37;;;;;;;;;;20822698;28;20227;-82
2022/04/16 16:53:45;;;;;;;1.10;0.60;;;;;;;;;;20862200;28;20733;-83
2022/04/16 17:24:30;;;;;;;0.90;0.60;;;;;;;;;;20845151;28;20218;-83
2022/04/16 17:34:31;;;;;;;0.87;0.37;;;;;;;;;;20938286;28;20332;-82
2022/04/16 17:44:34;;;;;;;0.83;0.40;;;;;;;;;;20910307;28;20864;-81
2022/04/16 17:54:35;;;;;;;0.40;0.30;;;;;;;;;;20900703;28;20237;-82
2022/04/16 18:04:41;;;;;;;0.57;0.30;;;;;;;;;;20850159;28;20230;-82
2022/04/16 18:14:43;;;;;;;0.90;0.60;;;;;;;;;;20850227;28;20291;-82
2022/04/16 18:24:45;;;;;;;0.47;0.30;;;;;;;;;;20908351;28;20282;-82
2022/04/16 18:34:47;;;;;;;0.33;0.30;;;;;;;;;;20868127;28;20278;-82
2022/04/16 18:44:50;;;;;;;0.67;0.43;;;;;;;;;;20865085;28;20279;-83
2022/04/16 18:54:53;;;;;;;1.03;0.60;;;;;;;;;;20887639;28;20275;-82
2022/04/16 19:15:15;;;;;;;2.50;0.50;;;;;;;;;;20836398;28;20286;-82
2022/04/16 19:25:17;;;;;;;0.50;0.40;;;;;;;;;;20931892;28;20830;-82
2022/04/16 19:35:18;;;;;;;1.50;0.57;;;;;;;;;;20855265;28;20229;-83
2022/04/16 19:45:21;;;;;;;0.97;0.60;;;;;;;;;;20877823;28;20645;-85
2022/04/16 19:55:23;;;;;;;0.70;0.47;;;;;;;;;;20858721;28;20230;-82
2022/04/16 20:05:25;;;;;;;1.40;0.80;;;;;;;;;;20842886;28;20213;-83
2022/04/16 20:15:28;;;;;;;1.57;0.50;;;;;;;;;;20873566;28;20580;-84
2022/04/16 20:25:30;;;;;;;0.73;0.43;;;;;;;;;;20858499;28;20782;-84
2022/04/16 20:35:31;;;;;;;5.43;3.03;;;;;;;;;;20800636;28;20225;-83
2022/04/16 20:45:33;;;;;;;3.73;1.50;;;;;;;;;;20892979;28;20222;-86
2022/04/16 20:55:36;;;;;;;0.63;0.40;;;;;;;;;;20855726;28;20260;-85
2022/04/16 21:05:38;;;;;;;0.70;0.50;;;;;;;;;;20929337;28;20217;-84
2022/04/16 21:15:40;;;;;;;1.10;0.60;;;;;;;;;;20957343;28;20279;-83
2022/04/16 21:25:42;;;;;;;1.30;0.67;;;;;;;;;;21015058;28;20239;-85
2022/04/16 21:35:44;;;;;;;1.30;0.80;;;;;;;;;;21069624;28;20269;-83
2022/04/16 21:45:46;;;;;;;1.40;0.70;;;;;;;;;;20979822;28;20282;-83
2022/04/16 21:56:14;;;;;;;;;;;;;;;;;;;;;
2022/04/16 22:06:18;;;;;;;1.13;0.60;;;;;;;;;;20907745;28;20218;-82
2022/04/16 22:16:20;;;;;;;0.50;0.40;;;;;;;;;;20889318;28;20229;-83
2022/04/16 22:26:22;;;;;;;0.53;0.40;;;;;;;;;;20857583;28;20234;-85
2022/04/16 22:36:25;;;;;;;0.70;0.67;;;;;;;;;;20873073;28;20214;-84
2022/04/16 22:46:27;;;;;;;1.17;0.53;;;;;;;;;;20858490;28;20221;-83
2022/04/16 22:56:28;;;;;;;2.20;0.70;;;;;;;;;;20862119;28;20225;-83
2022/04/16 23:06:30;;;;;;;0.70;0.40;;;;;;;;;;20866388;28;20641;-83
2022/04/16 23:16:38;;;;;;;2.33;0.50;;;;;;;;;;20874533;28;20267;-83
2022/04/16 23:26:39;;;;;;;0.47;0.40;;;;;;;;;;20918026;28;20198;-83
2022/04/16 23:36:41;;;;;;;0.97;0.50;;;;;;;;;;20911916;28;20558;-84
2022/04/16 23:46:55;;;;;;;0.50;0.40;;;;;;;;;;20878265;28;20244;-84
2022/04/16 23:56:57;;;;;;;1.07;0.60;;;;;;;;;;20877207;28;20221;-85
